sensor_id;sensor_type;location;lat;lon;timestamp;P1;durP1;ratioP1;P2;durP2;ratioP2
6983;SDS011;3532;51.118;7.210;2023-10-08T00:00:21;7.40;;;4.77;;
6983;SDS011;3532;51.118;7.210;2023-10-08T00:03:10;7.93;;;4.73;;
6983;SDS011;3532;51.118;7.210;2023-10-08T00:05:36;4.63;;;4.17;;
6983;SDS011;3532;51.118;7.210;2023-10-08T00:08:02;5.63;;;4.93;;
6983;SDS011;3532;51.118;7.210;2023-10-08T00:10:29;10.20;;;5.00;;
6983;SDS011;3532;51.118;7.210;2023-10-08T00:12:59;6.83;;;5.30;;
6983;SDS011;3532;51.118;7.210;2023-10-08T00:15:24;6.87;;;5.07;;
6983;SDS011;3532;51.118;7.210;2023-10-08T00:17:50;7.10;;;4.83;;
6983;SDS011;3532;51.118;7.210;2023-10-08T00:20:18;5.33;;;4.37;;
6983;SDS011;3532;51.118;7.210;2023-10-08T00:22:50;6.30;;;4.67;;
6983;SDS011;3532;51.118;7.210;2023-10-08T00:25:19;6.10;;;4.60;;
6983;SDS011;3532;51.118;7.210;2023-10-08T00:27:44;5.50;;;4.57;;
6983;SDS011;3532;51.118;7.210;2023-10-08T00:30:10;15.43;;;5.83;;
6983;SDS011;3532;51.118;7.210;2023-10-08T00:32:42;8.30;;;5.53;;
6983;SDS011;3532;51.118;7.210;2023-10-08T00:35:09;9.13;;;4.60;;
6983;SDS011;3532;51.118;7.210;2023-10-08T00:37:39;10.20;;;5.97;;
6983;SDS011;3532;51.118;7.210;2023-10-08T00:40:05;9.90;;;5.40;;
6983;SDS011;3532;51.118;7.210;2023-10-08T00:42:37;10.23;;;5.27;;
6983;SDS011;3532;51.118;7.210;2023-10-08T00:45:10;5.93;;;4.57;;
6983;SDS011;3532;51.118;7.210;2023-10-08T00:47:38;6.27;;;5.10;;
6983;SDS011;3532;51.118;7.210;2023-10-08T00:50:08;5.47;;;4.97;;
6983;SDS011;3532;51.118;7.210;2023-10-08T00:52:35;8.77;;;5.73;;
6983;SDS011;3532;51.118;7.210;2023-10-08T00:55:10;5.97;;;4.57;;
6983;SDS011;3532;51.118;7.210;2023-10-08T00:57:45;8.30;;;4.67;;
6983;SDS011;3532;51.118;7.210;2023-10-08T01:00:13;6.33;;;5.00;;
6983;SDS011;3532;51.118;7.210;2023-10-08T01:02:46;8.47;;;5.17;;
6983;SDS011;3532;51.118;7.210;2023-10-08T01:05:14;8.73;;;5.70;;
6983;SDS011;3532;51.118;7.210;2023-10-08T01:07:53;9.63;;;5.07;;
6983;SDS011;3532;51.118;7.210;2023-10-08T01:10:20;6.80;;;4.87;;
6983;SDS011;3532;51.118;7.210;2023-10-08T01:12:46;5.57;;;4.93;;
6983;SDS011;3532;51.118;7.210;2023-10-08T01:15:41;6.40;;;4.77;;
6983;SDS011;3532;51.118;7.210;2023-10-08T01:18:09;6.90;;;4.63;;
6983;SDS011;3532;51.118;7.210;2023-10-08T01:20:49;9.20;;;5.20;;
6983;SDS011;3532;51.118;7.210;2023-10-08T01:23:17;8.33;;;5.43;;
6983;SDS011;3532;51.118;7.210;2023-10-08T01:25:46;6.50;;;5.00;;
6983;SDS011;3532;51.118;7.210;2023-10-08T01:28:15;5.67;;;4.70;;
6983;SDS011;3532;51.118;7.210;2023-10-08T01:30:47;7.00;;;4.20;;
6983;SDS011;3532;51.118;7.210;2023-10-08T01:33:13;6.67;;;4.57;;
6983;SDS011;3532;51.118;7.210;2023-10-08T01:35:42;5.00;;;4.03;;
6983;SDS011;3532;51.118;7.210;2023-10-08T01:38:08;6.03;;;4.53;;
6983;SDS011;3532;51.118;7.210;2023-10-08T01:40:38;8.47;;;4.37;;
6983;SDS011;3532;51.118;7.210;2023-10-08T01:43:04;9.20;;;4.57;;
6983;SDS011;3532;51.118;7.210;2023-10-08T01:45:30;7.10;;;4.93;;
6983;SDS011;3532;51.118;7.210;2023-10-08T01:47:56;7.23;;;5.20;;
6983;SDS011;3532;51.118;7.210;2023-10-08T01:50:22;7.33;;;4.53;;
6983;SDS011;3532;51.118;7.210;2023-10-08T01:52:51;6.30;;;5.00;;
6983;SDS011;3532;51.118;7.210;2023-10-08T01:55:16;8.00;;;5.03;;
6983;SDS011;3532;51.118;7.210;2023-10-08T01:57:49;7.53;;;4.60;;
6983;SDS011;3532;51.118;7.210;2023-10-08T02:00:18;7.43;;;5.03;;
6983;SDS011;3532;51.118;7.210;2023-10-08T02:02:47;6.93;;;4.53;;
6983;SDS011;3532;51.118;7.210;2023-10-08T02:05:15;8.63;;;4.87;;
6983;SDS011;3532;51.118;7.210;2023-10-08T02:07:41;9.70;;;5.17;;
6983;SDS011;3532;51.118;7.210;2023-10-08T02:10:09;7.23;;;4.50;;
6983;SDS011;3532;51.118;7.210;2023-10-08T02:12:35;5.10;;;4.40;;
6983;SDS011;3532;51.118;7.210;2023-10-08T02:15:02;6.63;;;4.93;;
6983;SDS011;3532;51.118;7.210;2023-10-08T02:17:28;6.97;;;4.70;;
6983;SDS011;3532;51.118;7.210;2023-10-08T02:19:53;7.43;;;4.70;;
6983;SDS011;3532;51.118;7.210;2023-10-08T02:22:18;5.27;;;4.67;;
6983;SDS011;3532;51.118;7.210;2023-10-08T02:24:44;7.33;;;5.20;;
6983;SDS011;3532;51.118;7.210;2023-10-08T02:27:10;6.77;;;5.20;;
6983;SDS011;3532;51.118;7.210;2023-10-08T02:29:35;5.83;;;4.77;;
6983;SDS011;3532;51.118;7.210;2023-10-08T02:32:00;6.40;;;4.63;;
6983;SDS011;3532;51.118;7.210;2023-10-08T02:34:26;9.00;;;4.67;;
6983;SDS011;3532;51.118;7.210;2023-10-08T02:36:51;10.53;;;5.33;;
6983;SDS011;3532;51.118;7.210;2023-10-08T02:39:17;6.30;;;4.87;;
6983;SDS011;3532;51.118;7.210;2023-10-08T02:41:51;5.90;;;5.30;;
6983;SDS011;3532;51.118;7.210;2023-10-08T02:44:18;6.47;;;4.83;;
6983;SDS011;3532;51.118;7.210;2023-10-08T02:46:43;6.30;;;4.97;;
6983;SDS011;3532;51.118;7.210;2023-10-08T02:49:12;6.07;;;4.83;;
6983;SDS011;3532;51.118;7.210;2023-10-08T02:51:42;5.57;;;4.63;;
6983;SDS011;3532;51.118;7.210;2023-10-08T02:54:09;6.40;;;4.67;;
6983;SDS011;3532;51.118;7.210;2023-10-08T02:56:52;7.13;;;4.60;;
6983;SDS011;3532;51.118;7.210;2023-10-08T02:59:22;6.93;;;4.50;;
6983;SDS011;3532;51.118;7.210;2023-10-08T03:01:48;9.23;;;4.93;;
6983;SDS011;3532;51.118;7.210;2023-10-08T03:04:22;8.10;;;4.90;;
6983;SDS011;3532;51.118;7.210;2023-10-08T03:06:48;6.80;;;5.13;;
6983;SDS011;3532;51.118;7.210;2023-10-08T03:09:15;7.27;;;4.53;;
6983;SDS011;3532;51.118;7.210;2023-10-08T03:11:45;5.93;;;4.60;;
6983;SDS011;3532;51.118;7.210;2023-10-08T03:14:13;7.37;;;5.30;;
6983;SDS011;3532;51.118;7.210;2023-10-08T03:16:40;7.27;;;5.27;;
6983;SDS011;3532;51.118;7.210;2023-10-08T03:19:06;8.00;;;5.33;;
6983;SDS011;3532;51.118;7.210;2023-10-08T03:21:31;7.53;;;5.00;;
6983;SDS011;3532;51.118;7.210;2023-10-08T03:24:02;6.30;;;4.77;;
6983;SDS011;3532;51.118;7.210;2023-10-08T03:26:37;11.90;;;5.47;;
6983;SDS011;3532;51.118;7.210;2023-10-08T03:29:04;8.50;;;5.80;;
6983;SDS011;3532;51.118;7.210;2023-10-08T03:31:39;8.40;;;4.97;;
6983;SDS011;3532;51.118;7.210;2023-10-08T03:34:12;9.13;;;5.50;;
6983;SDS011;3532;51.118;7.210;2023-10-08T03:36:41;6.83;;;4.77;;
6983;SDS011;3532;51.118;7.210;2023-10-08T03:39:13;6.63;;;5.00;;
6983;SDS011;3532;51.118;7.210;2023-10-08T03:41:42;9.03;;;4.97;;
6983;SDS011;3532;51.118;7.210;2023-10-08T03:44:16;6.80;;;4.80;;
6983;SDS011;3532;51.118;7.210;2023-10-08T03:46:42;7.80;;;4.90;;
6983;SDS011;3532;51.118;7.210;2023-10-08T03:49:11;8.53;;;5.03;;
6983;SDS011;3532;51.118;7.210;2023-10-08T03:51:50;7.97;;;5.20;;
6983;SDS011;3532;51.118;7.210;2023-10-08T03:54:22;7.93;;;4.70;;
6983;SDS011;3532;51.118;7.210;2023-10-08T03:57:01;7.03;;;5.10;;
6983;SDS011;3532;51.118;7.210;2023-10-08T03:59:29;5.77;;;5.17;;
6983;SDS011;3532;51.118;7.210;2023-10-08T04:01:54;5.30;;;4.47;;
6983;SDS011;3532;51.118;7.210;2023-10-08T04:04:20;5.63;;;4.77;;
6983;SDS011;3532;51.118;7.210;2023-10-08T04:06:49;9.30;;;4.93;;
6983;SDS011;3532;51.118;7.210;2023-10-08T04:09:16;7.17;;;4.57;;
6983;SDS011;3532;51.118;7.210;2023-10-08T04:11:45;7.27;;;4.80;;
6983;SDS011;3532;51.118;7.210;2023-10-08T04:14:16;6.23;;;5.03;;
6983;SDS011;3532;51.118;7.210;2023-10-08T04:16:42;7.87;;;5.10;;
6983;SDS011;3532;51.118;7.210;2023-10-08T04:19:08;6.67;;;5.40;;
6983;SDS011;3532;51.118;7.210;2023-10-08T04:21:34;7.90;;;5.03;;
6983;SDS011;3532;51.118;7.210;2023-10-08T04:23:59;7.20;;;4.87;;
6983;SDS011;3532;51.118;7.210;2023-10-08T04:26:31;8.40;;;4.90;;
6983;SDS011;3532;51.118;7.210;2023-10-08T04:28:57;10.50;;;5.73;;
6983;SDS011;3532;51.118;7.210;2023-10-08T04:31:26;7.30;;;5.17;;
6983;SDS011;3532;51.118;7.210;2023-10-08T04:34:01;8.57;;;4.83;;
6983;SDS011;3532;51.118;7.210;2023-10-08T04:36:26;8.10;;;5.27;;
6983;SDS011;3532;51.118;7.210;2023-10-08T04:38:51;8.20;;;4.67;;
6983;SDS011;3532;51.118;7.210;2023-10-08T04:41:20;7.57;;;4.73;;
6983;SDS011;3532;51.118;7.210;2023-10-08T04:43:52;8.03;;;5.53;;
6983;SDS011;3532;51.118;7.210;2023-10-08T04:46:20;7.13;;;4.80;;
6983;SDS011;3532;51.118;7.210;2023-10-08T04:49:04;8.47;;;4.80;;
6983;SDS011;3532;51.118;7.210;2023-10-08T04:51:36;9.93;;;6.00;;
6983;SDS011;3532;51.118;7.210;2023-10-08T04:54:09;8.53;;;5.37;;
6983;SDS011;3532;51.118;7.210;2023-10-08T04:56:41;6.43;;;5.07;;
6983;SDS011;3532;51.118;7.210;2023-10-08T04:59:06;6.13;;;5.40;;
6983;SDS011;3532;51.118;7.210;2023-10-08T05:01:34;6.97;;;4.80;;
6983;SDS011;3532;51.118;7.210;2023-10-08T05:04:18;6.90;;;4.93;;
6983;SDS011;3532;51.118;7.210;2023-10-08T05:06:52;10.63;;;5.37;;
6983;SDS011;3532;51.118;7.210;2023-10-08T05:09:26;8.73;;;5.33;;
6983;SDS011;3532;51.118;7.210;2023-10-08T05:12:04;5.10;;;4.40;;
6983;SDS011;3532;51.118;7.210;2023-10-08T05:14:53;6.07;;;4.87;;
6983;SDS011;3532;51.118;7.210;2023-10-08T05:17:45;5.80;;;4.60;;
6983;SDS011;3532;51.118;7.210;2023-10-08T05:20:23;9.70;;;6.30;;
6983;SDS011;3532;51.118;7.210;2023-10-08T05:23:12;7.57;;;4.77;;
6983;SDS011;3532;51.118;7.210;2023-10-08T05:25:54;8.77;;;5.17;;
6983;SDS011;3532;51.118;7.210;2023-10-08T05:28:33;7.50;;;4.87;;
6983;SDS011;3532;51.118;7.210;2023-10-08T05:31:10;7.17;;;5.10;;
6983;SDS011;3532;51.118;7.210;2023-10-08T05:33:38;8.13;;;5.10;;
6983;SDS011;3532;51.118;7.210;2023-10-08T05:36:22;6.67;;;5.17;;
6983;SDS011;3532;51.118;7.210;2023-10-08T05:39:01;10.57;;;5.40;;
6983;SDS011;3532;51.118;7.210;2023-10-08T05:41:41;5.97;;;5.17;;
6983;SDS011;3532;51.118;7.210;2023-10-08T05:44:16;6.27;;;4.80;;
6983;SDS011;3532;51.118;7.210;2023-10-08T05:46:45;8.80;;;5.70;;
6983;SDS011;3532;51.118;7.210;2023-10-08T05:49:20;6.57;;;4.37;;
6983;SDS011;3532;51.118;7.210;2023-10-08T05:52:03;9.47;;;5.77;;
6983;SDS011;3532;51.118;7.210;2023-10-08T05:54:28;9.13;;;5.93;;
6983;SDS011;3532;51.118;7.210;2023-10-08T05:59:38;9.63;;;6.30;;
6983;SDS011;3532;51.118;7.210;2023-10-08T06:02:31;7.33;;;5.30;;
6983;SDS011;3532;51.118;7.210;2023-10-08T06:05:06;8.53;;;5.83;;
6983;SDS011;3532;51.118;7.210;2023-10-08T06:07:39;5.83;;;5.03;;
6983;SDS011;3532;51.118;7.210;2023-10-08T06:10:23;8.30;;;5.43;;
6983;SDS011;3532;51.118;7.210;2023-10-08T06:13:03;5.83;;;4.77;;
6983;SDS011;3532;51.118;7.210;2023-10-08T06:15:55;8.30;;;5.73;;
6983;SDS011;3532;51.118;7.210;2023-10-08T06:18:22;7.37;;;4.70;;
6983;SDS011;3532;51.118;7.210;2023-10-08T06:20:51;8.30;;;4.90;;
6983;SDS011;3532;51.118;7.210;2023-10-08T06:23:19;10.07;;;6.03;;
6983;SDS011;3532;51.118;7.210;2023-10-08T06:25:45;10.50;;;5.03;;
6983;SDS011;3532;51.118;7.210;2023-10-08T06:28:12;6.40;;;5.00;;
6983;SDS011;3532;51.118;7.210;2023-10-08T06:30:44;9.43;;;5.27;;
6983;SDS011;3532;51.118;7.210;2023-10-08T06:33:13;8.07;;;5.70;;
6983;SDS011;3532;51.118;7.210;2023-10-08T06:35:39;10.97;;;6.67;;
6983;SDS011;3532;51.118;7.210;2023-10-08T06:38:09;9.30;;;6.00;;
6983;SDS011;3532;51.118;7.210;2023-10-08T06:40:35;9.33;;;5.47;;
6983;SDS011;3532;51.118;7.210;2023-10-08T06:43:01;7.30;;;5.10;;
6983;SDS011;3532;51.118;7.210;2023-10-08T06:45:36;7.80;;;5.07;;
6983;SDS011;3532;51.118;7.210;2023-10-08T06:48:02;7.43;;;5.23;;
6983;SDS011;3532;51.118;7.210;2023-10-08T06:50:31;8.77;;;5.20;;
6983;SDS011;3532;51.118;7.210;2023-10-08T06:52:59;6.37;;;5.37;;
6983;SDS011;3532;51.118;7.210;2023-10-08T06:55:24;10.47;;;5.73;;
6983;SDS011;3532;51.118;7.210;2023-10-08T06:57:52;8.97;;;5.23;;
6983;SDS011;3532;51.118;7.210;2023-10-08T07:00:17;8.80;;;5.93;;
6983;SDS011;3532;51.118;7.210;2023-10-08T07:03:02;7.53;;;5.77;;
6983;SDS011;3532;51.118;7.210;2023-10-08T07:05:28;9.67;;;5.53;;
6983;SDS011;3532;51.118;7.210;2023-10-08T07:07:54;11.53;;;5.33;;
6983;SDS011;3532;51.118;7.210;2023-10-08T07:10:19;8.13;;;5.00;;
6983;SDS011;3532;51.118;7.210;2023-10-08T07:12:48;6.90;;;4.80;;
6983;SDS011;3532;51.118;7.210;2023-10-08T07:15:13;7.97;;;4.90;;
6983;SDS011;3532;51.118;7.210;2023-10-08T07:17:39;6.63;;;5.10;;
6983;SDS011;3532;51.118;7.210;2023-10-08T07:20:08;8.83;;;5.40;;
6983;SDS011;3532;51.118;7.210;2023-10-08T07:22:46;7.40;;;5.57;;
6983;SDS011;3532;51.118;7.210;2023-10-08T07:25:19;7.43;;;5.07;;
6983;SDS011;3532;51.118;7.210;2023-10-08T07:27:47;8.53;;;5.10;;
6983;SDS011;3532;51.118;7.210;2023-10-08T07:30:13;6.43;;;5.10;;
6983;SDS011;3532;51.118;7.210;2023-10-08T07:32:51;10.03;;;5.60;;
6983;SDS011;3532;51.118;7.210;2023-10-08T07:35:17;8.90;;;5.63;;
6983;SDS011;3532;51.118;7.210;2023-10-08T07:37:45;8.60;;;5.40;;
6983;SDS011;3532;51.118;7.210;2023-10-08T07:40:12;12.10;;;5.77;;
6983;SDS011;3532;51.118;7.210;2023-10-08T07:42:40;10.53;;;5.57;;
6983;SDS011;3532;51.118;7.210;2023-10-08T07:45:06;11.23;;;6.07;;
6983;SDS011;3532;51.118;7.210;2023-10-08T07:47:32;10.17;;;5.87;;
6983;SDS011;3532;51.118;7.210;2023-10-08T07:49:57;11.47;;;6.17;;
6983;SDS011;3532;51.118;7.210;2023-10-08T07:52:23;10.47;;;5.50;;
6983;SDS011;3532;51.118;7.210;2023-10-08T07:54:49;7.80;;;5.33;;
6983;SDS011;3532;51.118;7.210;2023-10-08T07:57:15;9.97;;;5.80;;
6983;SDS011;3532;51.118;7.210;2023-10-08T07:59:51;10.63;;;5.57;;
6983;SDS011;3532;51.118;7.210;2023-10-08T08:02:19;8.93;;;5.80;;
6983;SDS011;3532;51.118;7.210;2023-10-08T08:04:50;7.30;;;5.17;;
6983;SDS011;3532;51.118;7.210;2023-10-08T08:07:16;8.10;;;5.67;;
6983;SDS011;3532;51.118;7.210;2023-10-08T08:09:42;8.00;;;5.40;;
6983;SDS011;3532;51.118;7.210;2023-10-08T08:12:13;8.63;;;6.00;;
6983;SDS011;3532;51.118;7.210;2023-10-08T08:14:38;9.33;;;5.93;;
6983;SDS011;3532;51.118;7.210;2023-10-08T08:17:06;9.97;;;5.77;;
6983;SDS011;3532;51.118;7.210;2023-10-08T08:19:45;13.57;;;6.77;;
6983;SDS011;3532;51.118;7.210;2023-10-08T08:22:12;10.00;;;6.37;;
6983;SDS011;3532;51.118;7.210;2023-10-08T08:24:45;10.13;;;6.00;;
6983;SDS011;3532;51.118;7.210;2023-10-08T08:27:12;9.70;;;6.30;;
6983;SDS011;3532;51.118;7.210;2023-10-08T08:29:48;9.63;;;5.93;;
6983;SDS011;3532;51.118;7.210;2023-10-08T08:32:15;10.67;;;6.43;;
6983;SDS011;3532;51.118;7.210;2023-10-08T08:34:41;11.53;;;6.33;;
6983;SDS011;3532;51.118;7.210;2023-10-08T08:37:09;12.43;;;6.93;;
6983;SDS011;3532;51.118;7.210;2023-10-08T08:39:36;9.53;;;5.90;;
6983;SDS011;3532;51.118;7.210;2023-10-08T08:42:03;9.57;;;6.50;;
6983;SDS011;3532;51.118;7.210;2023-10-08T08:44:29;12.53;;;6.90;;
6983;SDS011;3532;51.118;7.210;2023-10-08T08:46:57;12.10;;;7.63;;
6983;SDS011;3532;51.118;7.210;2023-10-08T08:49:23;8.20;;;6.10;;
6983;SDS011;3532;51.118;7.210;2023-10-08T08:51:49;9.17;;;6.03;;
6983;SDS011;3532;51.118;7.210;2023-10-08T08:54:18;12.80;;;7.20;;
6983;SDS011;3532;51.118;7.210;2023-10-08T08:56:45;10.77;;;7.20;;
6983;SDS011;3532;51.118;7.210;2023-10-08T08:59:11;14.23;;;7.27;;
6983;SDS011;3532;51.118;7.210;2023-10-08T09:01:37;11.10;;;6.90;;
6983;SDS011;3532;51.118;7.210;2023-10-08T09:04:03;10.10;;;6.30;;
6983;SDS011;3532;51.118;7.210;2023-10-08T09:06:33;10.43;;;6.70;;
6983;SDS011;3532;51.118;7.210;2023-10-08T09:08:59;14.53;;;7.23;;
6983;SDS011;3532;51.118;7.210;2023-10-08T09:11:39;8.37;;;6.87;;
6983;SDS011;3532;51.118;7.210;2023-10-08T09:14:07;15.03;;;8.37;;
6983;SDS011;3532;51.118;7.210;2023-10-08T09:16:35;10.83;;;7.67;;
6983;SDS011;3532;51.118;7.210;2023-10-08T09:19:01;20.07;;;9.40;;
6983;SDS011;3532;51.118;7.210;2023-10-08T09:21:26;14.80;;;7.67;;
6983;SDS011;3532;51.118;7.210;2023-10-08T09:23:52;13.40;;;7.13;;
6983;SDS011;3532;51.118;7.210;2023-10-08T09:26:22;13.67;;;8.53;;
6983;SDS011;3532;51.118;7.210;2023-10-08T09:28:48;13.23;;;7.90;;
6983;SDS011;3532;51.118;7.210;2023-10-08T09:31:15;12.50;;;8.57;;
6983;SDS011;3532;51.118;7.210;2023-10-08T09:33:42;18.10;;;10.27;;
6983;SDS011;3532;51.118;7.210;2023-10-08T09:36:09;25.97;;;11.90;;
6983;SDS011;3532;51.118;7.210;2023-10-08T09:38:43;24.13;;;12.00;;
6983;SDS011;3532;51.118;7.210;2023-10-08T09:41:09;20.00;;;12.33;;
6983;SDS011;3532;51.118;7.210;2023-10-08T09:43:35;17.60;;;11.13;;
6983;SDS011;3532;51.118;7.210;2023-10-08T09:48:51;18.67;;;10.90;;
6983;SDS011;3532;51.118;7.210;2023-10-08T09:51:20;17.30;;;10.63;;
6983;SDS011;3532;51.118;7.210;2023-10-08T09:53:52;19.67;;;11.00;;
6983;SDS011;3532;51.118;7.210;2023-10-08T09:56:26;21.27;;;11.70;;
6983;SDS011;3532;51.118;7.210;2023-10-08T09:58:54;19.67;;;11.67;;
6983;SDS011;3532;51.118;7.210;2023-10-08T10:01:19;14.80;;;9.50;;
6983;SDS011;3532;51.118;7.210;2023-10-08T10:03:47;19.23;;;10.10;;
6983;SDS011;3532;51.118;7.210;2023-10-08T10:06:17;20.00;;;11.13;;
6983;SDS011;3532;51.118;7.210;2023-10-08T10:08:43;25.37;;;11.30;;
6983;SDS011;3532;51.118;7.210;2023-10-08T10:11:09;23.27;;;13.07;;
6983;SDS011;3532;51.118;7.210;2023-10-08T10:13:40;21.67;;;12.87;;
6983;SDS011;3532;51.118;7.210;2023-10-08T10:16:07;26.10;;;11.87;;
6983;SDS011;3532;51.118;7.210;2023-10-08T10:18:33;21.87;;;11.73;;
6983;SDS011;3532;51.118;7.210;2023-10-08T10:20:59;19.07;;;12.87;;
6983;SDS011;3532;51.118;7.210;2023-10-08T10:23:46;27.53;;;13.43;;
6983;SDS011;3532;51.118;7.210;2023-10-08T10:26:28;19.83;;;12.33;;
6983;SDS011;3532;51.118;7.210;2023-10-08T10:31:39;23.27;;;12.27;;
6983;SDS011;3532;51.118;7.210;2023-10-08T10:34:11;20.83;;;12.43;;
6983;SDS011;3532;51.118;7.210;2023-10-08T10:36:47;22.17;;;12.47;;
6983;SDS011;3532;51.118;7.210;2023-10-08T10:39:20;23.77;;;13.57;;
6983;SDS011;3532;51.118;7.210;2023-10-08T10:41:53;23.77;;;13.67;;
6983;SDS011;3532;51.118;7.210;2023-10-08T10:44:25;25.23;;;13.60;;
6983;SDS011;3532;51.118;7.210;2023-10-08T10:46:50;17.63;;;12.03;;
6983;SDS011;3532;51.118;7.210;2023-10-08T10:49:19;28.17;;;11.77;;
6983;SDS011;3532;51.118;7.210;2023-10-08T10:51:55;22.67;;;13.03;;
6983;SDS011;3532;51.118;7.210;2023-10-08T10:54:22;24.73;;;13.23;;
6983;SDS011;3532;51.118;7.210;2023-10-08T10:56:49;26.77;;;12.50;;
6983;SDS011;3532;51.118;7.210;2023-10-08T10:59:28;19.03;;;11.70;;
6983;SDS011;3532;51.118;7.210;2023-10-08T11:02:03;23.93;;;12.50;;
6983;SDS011;3532;51.118;7.210;2023-10-08T11:04:46;18.87;;;10.97;;
6983;SDS011;3532;51.118;7.210;2023-10-08T11:07:15;29.63;;;12.53;;
6983;SDS011;3532;51.118;7.210;2023-10-08T11:09:42;21.43;;;11.30;;
6983;SDS011;3532;51.118;7.210;2023-10-08T11:12:09;17.83;;;10.60;;
6983;SDS011;3532;51.118;7.210;2023-10-08T11:14:39;24.73;;;11.57;;
6983;SDS011;3532;51.118;7.210;2023-10-08T11:17:15;18.60;;;11.37;;
6983;SDS011;3532;51.118;7.210;2023-10-08T11:19:45;19.97;;;11.87;;
6983;SDS011;3532;51.118;7.210;2023-10-08T11:22:14;21.43;;;11.33;;
6983;SDS011;3532;51.118;7.210;2023-10-08T11:24:46;22.63;;;11.73;;
6983;SDS011;3532;51.118;7.210;2023-10-08T11:27:19;24.03;;;12.23;;
6983;SDS011;3532;51.118;7.210;2023-10-08T11:30:03;21.70;;;11.50;;
6983;SDS011;3532;51.118;7.210;2023-10-08T11:32:35;20.70;;;11.97;;
6983;SDS011;3532;51.118;7.210;2023-10-08T11:35:03;19.10;;;11.33;;
6983;SDS011;3532;51.118;7.210;2023-10-08T11:37:44;20.50;;;11.43;;
6983;SDS011;3532;51.118;7.210;2023-10-08T11:40:21;17.33;;;11.10;;
6983;SDS011;3532;51.118;7.210;2023-10-08T11:42:53;16.70;;;11.23;;
6983;SDS011;3532;51.118;7.210;2023-10-08T11:45:21;17.50;;;10.80;;
6983;SDS011;3532;51.118;7.210;2023-10-08T11:47:51;23.37;;;11.50;;
6983;SDS011;3532;51.118;7.210;2023-10-08T11:50:22;17.37;;;12.17;;
6983;SDS011;3532;51.118;7.210;2023-10-08T11:52:55;21.73;;;12.87;;
6983;SDS011;3532;51.118;7.210;2023-10-08T11:55:26;18.87;;;10.40;;
6983;SDS011;3532;51.118;7.210;2023-10-08T11:57:51;18.90;;;11.03;;
6983;SDS011;3532;51.118;7.210;2023-10-08T12:00:17;19.87;;;11.60;;
6983;SDS011;3532;51.118;7.210;2023-10-08T12:02:48;21.23;;;10.77;;
6983;SDS011;3532;51.118;7.210;2023-10-08T12:05:13;17.60;;;10.77;;
6983;SDS011;3532;51.118;7.210;2023-10-08T12:07:48;14.87;;;10.17;;
6983;SDS011;3532;51.118;7.210;2023-10-08T12:10:16;24.87;;;12.47;;
6983;SDS011;3532;51.118;7.210;2023-10-08T12:12:46;13.90;;;9.97;;
6983;SDS011;3532;51.118;7.210;2023-10-08T12:15:13;15.03;;;10.90;;
6983;SDS011;3532;51.118;7.210;2023-10-08T12:17:44;17.97;;;10.30;;
6983;SDS011;3532;51.118;7.210;2023-10-08T12:20:18;22.00;;;10.80;;
6983;SDS011;3532;51.118;7.210;2023-10-08T12:22:50;19.37;;;11.20;;
6983;SDS011;3532;51.118;7.210;2023-10-08T12:25:16;18.20;;;11.10;;
6983;SDS011;3532;51.118;7.210;2023-10-08T12:27:41;21.13;;;10.83;;
6983;SDS011;3532;51.118;7.210;2023-10-08T12:30:07;22.77;;;10.97;;
6983;SDS011;3532;51.118;7.210;2023-10-08T12:32:38;19.50;;;11.63;;
6983;SDS011;3532;51.118;7.210;2023-10-08T12:35:07;19.27;;;11.27;;
6983;SDS011;3532;51.118;7.210;2023-10-08T12:37:37;15.20;;;9.43;;
6983;SDS011;3532;51.118;7.210;2023-10-08T12:40:09;18.83;;;10.67;;
6983;SDS011;3532;51.118;7.210;2023-10-08T12:42:47;21.97;;;10.43;;
6983;SDS011;3532;51.118;7.210;2023-10-08T12:45:13;16.60;;;10.80;;
6983;SDS011;3532;51.118;7.210;2023-10-08T12:47:38;17.07;;;10.20;;
6983;SDS011;3532;51.118;7.210;2023-10-08T12:50:04;16.13;;;10.20;;
6983;SDS011;3532;51.118;7.210;2023-10-08T12:52:32;15.83;;;10.73;;
6983;SDS011;3532;51.118;7.210;2023-10-08T12:55:00;16.63;;;11.20;;
6983;SDS011;3532;51.118;7.210;2023-10-08T12:57:29;16.53;;;10.17;;
6983;SDS011;3532;51.118;7.210;2023-10-08T12:59:58;15.77;;;10.53;;
6983;SDS011;3532;51.118;7.210;2023-10-08T13:02:24;19.27;;;10.23;;
6983;SDS011;3532;51.118;7.210;2023-10-08T13:04:53;16.40;;;10.00;;
6983;SDS011;3532;51.118;7.210;2023-10-08T13:07:20;16.93;;;11.20;;
6983;SDS011;3532;51.118;7.210;2023-10-08T13:09:46;14.57;;;9.53;;
6983;SDS011;3532;51.118;7.210;2023-10-08T13:12:12;26.43;;;11.63;;
6983;SDS011;3532;51.118;7.210;2023-10-08T13:14:40;21.70;;;10.60;;
6983;SDS011;3532;51.118;7.210;2023-10-08T13:17:05;18.23;;;11.27;;
6983;SDS011;3532;51.118;7.210;2023-10-08T13:19:35;17.53;;;11.50;;
6983;SDS011;3532;51.118;7.210;2023-10-08T13:22:03;20.60;;;11.90;;
6983;SDS011;3532;51.118;7.210;2023-10-08T13:24:32;19.00;;;11.83;;
6983;SDS011;3532;51.118;7.210;2023-10-08T13:26:58;17.90;;;10.73;;
6983;SDS011;3532;51.118;7.210;2023-10-08T13:29:24;18.57;;;11.90;;
6983;SDS011;3532;51.118;7.210;2023-10-08T13:31:52;16.23;;;10.73;;
6983;SDS011;3532;51.118;7.210;2023-10-08T13:34:19;18.50;;;10.57;;
6983;SDS011;3532;51.118;7.210;2023-10-08T13:36:44;15.77;;;10.77;;
6983;SDS011;3532;51.118;7.210;2023-10-08T13:39:12;17.33;;;11.30;;
6983;SDS011;3532;51.118;7.210;2023-10-08T13:41:43;17.33;;;10.53;;
6983;SDS011;3532;51.118;7.210;2023-10-08T13:44:12;16.17;;;11.07;;
6983;SDS011;3532;51.118;7.210;2023-10-08T13:46:38;18.83;;;11.33;;
6983;SDS011;3532;51.118;7.210;2023-10-08T13:49:08;19.27;;;10.53;;
6983;SDS011;3532;51.118;7.210;2023-10-08T13:51:35;16.47;;;10.97;;
6983;SDS011;3532;51.118;7.210;2023-10-08T13:54:03;21.07;;;9.77;;
6983;SDS011;3532;51.118;7.210;2023-10-08T13:56:31;17.60;;;10.40;;
6983;SDS011;3532;51.118;7.210;2023-10-08T13:58:58;17.13;;;10.50;;
6983;SDS011;3532;51.118;7.210;2023-10-08T14:01:39;17.37;;;10.80;;
6983;SDS011;3532;51.118;7.210;2023-10-08T14:04:08;16.60;;;9.87;;
6983;SDS011;3532;51.118;7.210;2023-10-08T14:06:38;15.13;;;10.20;;
6983;SDS011;3532;51.118;7.210;2023-10-08T14:09:06;15.00;;;9.73;;
6983;SDS011;3532;51.118;7.210;2023-10-08T14:11:37;13.83;;;9.00;;
6983;SDS011;3532;51.118;7.210;2023-10-08T14:14:03;12.63;;;9.43;;
6983;SDS011;3532;51.118;7.210;2023-10-08T14:16:39;12.80;;;8.50;;
6983;SDS011;3532;51.118;7.210;2023-10-08T14:19:07;13.13;;;8.97;;
6983;SDS011;3532;51.118;7.210;2023-10-08T14:21:33;15.13;;;9.73;;
6983;SDS011;3532;51.118;7.210;2023-10-08T14:24:03;15.60;;;9.07;;
6983;SDS011;3532;51.118;7.210;2023-10-08T14:26:30;13.87;;;8.53;;
6983;SDS011;3532;51.118;7.210;2023-10-08T14:29:01;14.30;;;9.87;;
6983;SDS011;3532;51.118;7.210;2023-10-08T14:31:33;15.60;;;9.90;;
6983;SDS011;3532;51.118;7.210;2023-10-08T14:33:58;13.37;;;9.07;;
6983;SDS011;3532;51.118;7.210;2023-10-08T14:36:48;14.33;;;9.67;;
6983;SDS011;3532;51.118;7.210;2023-10-08T14:39:33;16.47;;;9.67;;
6983;SDS011;3532;51.118;7.210;2023-10-08T14:42:17;16.80;;;10.23;;
6983;SDS011;3532;51.118;7.210;2023-10-08T14:45:02;12.03;;;8.83;;
6983;SDS011;3532;51.118;7.210;2023-10-08T14:47:28;14.17;;;10.27;;
6983;SDS011;3532;51.118;7.210;2023-10-08T14:49:53;16.23;;;9.67;;
6983;SDS011;3532;51.118;7.210;2023-10-08T14:52:18;13.17;;;9.50;;
6983;SDS011;3532;51.118;7.210;2023-10-08T14:54:44;14.83;;;9.60;;
6983;SDS011;3532;51.118;7.210;2023-10-08T14:57:10;14.93;;;10.53;;
6983;SDS011;3532;51.118;7.210;2023-10-08T14:59:39;19.80;;;10.43;;
6983;SDS011;3532;51.118;7.210;2023-10-08T15:02:05;13.40;;;9.07;;
6983;SDS011;3532;51.118;7.210;2023-10-08T15:04:31;20.53;;;10.10;;
6983;SDS011;3532;51.118;7.210;2023-10-08T15:07:00;15.80;;;9.07;;
6983;SDS011;3532;51.118;7.210;2023-10-08T15:09:26;16.97;;;9.70;;
6983;SDS011;3532;51.118;7.210;2023-10-08T15:11:51;14.50;;;8.87;;
6983;SDS011;3532;51.118;7.210;2023-10-08T15:14:17;17.20;;;9.23;;
6983;SDS011;3532;51.118;7.210;2023-10-08T15:16:47;17.10;;;9.60;;
6983;SDS011;3532;51.118;7.210;2023-10-08T15:19:20;13.43;;;9.57;;
6983;SDS011;3532;51.118;7.210;2023-10-08T15:21:47;18.13;;;9.73;;
6983;SDS011;3532;51.118;7.210;2023-10-08T15:24:15;17.00;;;9.53;;
6983;SDS011;3532;51.118;7.210;2023-10-08T15:26:46;16.77;;;9.77;;
6983;SDS011;3532;51.118;7.210;2023-10-08T15:29:21;18.10;;;10.37;;